CST,Max TemperatureF,Mean TemperatureF,Min TemperatureF,Max Dew PointF,MeanDew PointF,Min DewpointF,Max Humidity, Mean Humidity, Min Humidity, Max Sea Level PressureIn, Mean Sea Level PressureIn, Min Sea Level PressureIn, Max VisibilityMiles, Mean VisibilityMiles, Min VisibilityMiles, Max Wind SpeedMPH, Mean Wind SpeedMPH, Max Gust SpeedMPH,PrecipitationIn, CloudCover, Events, WindDirDegrees
2013-11-1,48,41,34,37,35,32,96,78,60,29.90,29.66,29.42,10,9,6,14,8,18,0.00,5,,311
2013-11-2,49,38,27,33,29,26,92,73,53,30.13,30.07,29.92,10,10,7,12,3,18,0.00,0,,306
2013-11-3,55,43,30,33,31,28,92,67,41,30.12,29.99,29.88,10,10,6,36,16,46,0.00,1,,137
2013-11-4,48,38,28,43,35,27,92,74,56,30.18,29.91,29.79,10,10,4,22,10,29,0.12,5,Rain,211
2013-11-5,38,31,24,30,27,22,100,77,54,30.30,30.16,30.06,10,6,1,10,4,14,0.21,6,Snow,340
2013-11-6,40,31,21,28,24,18,92,70,48,30.20,30.13,30.05,10,8,2,17,7,20,T,5,Snow,302
2013-11-7,39,30,21,27,23,19,96,78,59,30.28,30.24,30.20,10,8,4,14,2,20,0.00,3,,280
2013-11-8,41,30,19,36,26,18,96,75,54,30.23,29.92,29.62,10,8,3,17,7,24,0.02,5,Rain,143
2013-11-9,41,39,36,37,31,25,92,76,59,30.25,29.92,29.61,10,10,10,30,18,40,T,8,Rain,285
2013-11-10,39,33,27,29,27,24,85,75,64,30.37,30.27,30.13,10,10,10,22,8,28,0.00,6,,263
2013-11-11,34,22,9,24,9,4,82,66,50,30.82,30.50,30.19,10,10,10,22,12,30,0.00,4,,348
2013-11-12,28,17,6,13,7,3,80,57,34,30.85,30.72,30.45,10,10,10,14,7,17,0.00,0,,232
2013-11-13,50,33,16,32,23,12,82,64,46,30.41,30.07,29.89,10,10,10,21,10,25,0.00,0,,198
2013-11-14,53,41,29,36,32,28,92,73,54,29.88,29.84,29.77,10,10,8,15,4,20,0.00,1,,220
2013-11-15,53,37,21,38,29,19,100,73,46,29.87,29.78,29.62,10,6,0,17,7,21,0.00,1,Fog,160
2013-11-16,44,39,34,45,41,33,100,85,70,29.60,29.37,29.24,10,3,0,16,7,21,0.18,7,Fog-Rain,133
2013-11-17,43,36,29,43,35,21,100,85,69,29.87,29.46,29.26,10,7,0,30,17,37,0.00,8,Fog,278
2013-11-18,33,25,17,21,18,15,92,75,58,30.31,30.15,29.89,10,10,10,30,12,36,0.00,4,,311
2013-11-19,46,32,17,30,24,15,92,69,45,30.30,30.07,29.88,10,10,10,24,14,33,0.00,0,,137
2013-11-20,46,39,32,33,30,26,92,73,53,30.07,29.94,29.87,10,9,5,21,11,28,0.00,5,,150
2013-11-21,37,28,19,34,20,10,92,76,60,30.61,30.34,30.07,10,8,4,22,13,28,T,8,Snow,329
2013-11-22,31,19,6,14,6,-1,91,60,28,30.74,30.61,30.50,10,9,2,23,11,29,T,1,Snow,296
2013-11-23,17,9,1,0,-2,-6,87,64,40,30.93,30.84,30.72,10,10,10,16,8,22,0.00,0,,317
2013-11-24,34,18,1,19,8,-3,87,63,39,30.76,30.32,29.94,10,10,10,26,15,33,0.00,1,,177
2013-11-25,38,33,27,25,21,17,78,65,52,30.14,30.02,29.90,10,10,10,28,14,35,0.00,6,,284
2013-11-26,27,18,8,17,5,1,80,63,45,30.46,30.32,30.09,10,10,8,28,14,37,T,3,Snow,323
2013-11-27,22,12,1,8,5,-3,91,72,52,30.47,30.30,30.12,10,10,10,18,6,22,0.00,5,,148
2013-11-28,25,14,3,16,10,2,88,69,50,30.58,30.35,30.12,10,8,1,18,5,25,T,6,Snow,323
2013-11-29,30,17,3,18,12,0,92,73,53,30.57,30.40,30.17,10,10,9,20,9,26,0.00,2,,146
2013-11-30,37,26,15,24,19,14,100,80,59,30.25,30.13,30.08,10,8,5,12,5,14,0.00,1,,312